sensor_id;sensor_type;location;lat;lon;timestamp;P1;durP1;ratioP1;P2;durP2;ratioP2
13173;SDS011;6652;48.802;9.190;2023-09-19T00:00:06;3.97;;;1.15;;
13173;SDS011;6652;48.802;9.190;2023-09-19T00:02:34;4.40;;;1.02;;
13173;SDS011;6652;48.802;9.190;2023-09-19T00:05:02;1.88;;;0.90;;
13173;SDS011;6652;48.802;9.190;2023-09-19T00:07:30;1.38;;;0.80;;
13173;SDS011;6652;48.802;9.190;2023-09-19T00:09:57;5.00;;;1.40;;
13173;SDS011;6652;48.802;9.190;2023-09-19T00:12:27;3.53;;;0.90;;
13173;SDS011;6652;48.802;9.190;2023-09-19T00:14:55;1.50;;;0.93;;
13173;SDS011;6652;48.802;9.190;2023-09-19T00:17:22;5.55;;;1.10;;
13173;SDS011;6652;48.802;9.190;2023-09-19T00:19:49;2.15;;;0.93;;
13173;SDS011;6652;48.802;9.190;2023-09-19T00:22:18;2.50;;;1.02;;
13173;SDS011;6652;48.802;9.190;2023-09-19T00:24:45;1.65;;;0.82;;
13173;SDS011;6652;48.802;9.190;2023-09-19T00:27:12;4.30;;;1.00;;
13173;SDS011;6652;48.802;9.190;2023-09-19T00:29:38;2.72;;;0.85;;
13173;SDS011;6652;48.802;9.190;2023-09-19T00:32:08;1.83;;;1.33;;
13173;SDS011;6652;48.802;9.190;2023-09-19T00:34:34;3.10;;;1.05;;
13173;SDS011;6652;48.802;9.190;2023-09-19T00:37:03;1.48;;;1.02;;
13173;SDS011;6652;48.802;9.190;2023-09-19T00:39:30;2.38;;;1.13;;
13173;SDS011;6652;48.802;9.190;2023-09-19T00:41:57;2.97;;;1.08;;
13173;SDS011;6652;48.802;9.190;2023-09-19T00:44:29;2.55;;;0.95;;
13173;SDS011;6652;48.802;9.190;2023-09-19T00:46:56;2.35;;;1.10;;
13173;SDS011;6652;48.802;9.190;2023-09-19T00:49:25;5.45;;;1.20;;
13173;SDS011;6652;48.802;9.190;2023-09-19T00:51:52;2.05;;;0.75;;
13173;SDS011;6652;48.802;9.190;2023-09-19T00:54:20;3.72;;;1.00;;
13173;SDS011;6652;48.802;9.190;2023-09-19T00:56:46;2.47;;;1.23;;
13173;SDS011;6652;48.802;9.190;2023-09-19T00:59:16;2.53;;;1.27;;
13173;SDS011;6652;48.802;9.190;2023-09-19T01:01:42;2.03;;;0.93;;
13173;SDS011;6652;48.802;9.190;2023-09-19T01:04:10;3.05;;;0.90;;
13173;SDS011;6652;48.802;9.190;2023-09-19T01:06:39;1.25;;;0.80;;
13173;SDS011;6652;48.802;9.190;2023-09-19T01:09:06;5.93;;;0.93;;
13173;SDS011;6652;48.802;9.190;2023-09-19T01:11:33;3.28;;;1.10;;
13173;SDS011;6652;48.802;9.190;2023-09-19T01:14:09;5.03;;;1.35;;
13173;SDS011;6652;48.802;9.190;2023-09-19T01:16:44;4.45;;;1.10;;
13173;SDS011;6652;48.802;9.190;2023-09-19T01:19:28;4.63;;;0.90;;
13173;SDS011;6652;48.802;9.190;2023-09-19T01:22:21;1.48;;;0.80;;
13173;SDS011;6652;48.802;9.190;2023-09-19T01:28:07;6.55;;;1.00;;
13173;SDS011;6652;48.802;9.190;2023-09-19T01:30:48;4.50;;;0.88;;
13173;SDS011;6652;48.802;9.190;2023-09-19T01:33:20;0.80;;;0.80;;
13173;SDS011;6652;48.802;9.190;2023-09-19T01:35:48;2.75;;;0.90;;
13173;SDS011;6652;48.802;9.190;2023-09-19T01:38:15;2.20;;;0.88;;
13173;SDS011;6652;48.802;9.190;2023-09-19T01:40:47;2.33;;;0.70;;
13173;SDS011;6652;48.802;9.190;2023-09-19T01:43:26;3.42;;;0.75;;
13173;SDS011;6652;48.802;9.190;2023-09-19T01:46:02;2.03;;;0.80;;
13173;SDS011;6652;48.802;9.190;2023-09-19T01:48:38;2.65;;;0.63;;
13173;SDS011;6652;48.802;9.190;2023-09-19T01:51:11;1.80;;;0.85;;
13173;SDS011;6652;48.802;9.190;2023-09-19T01:53:43;1.67;;;0.80;;
13173;SDS011;6652;48.802;9.190;2023-09-19T01:56:21;6.07;;;1.20;;
13173;SDS011;6652;48.802;9.190;2023-09-19T02:01:31;3.55;;;0.77;;
13173;SDS011;6652;48.802;9.190;2023-09-19T02:03:59;2.60;;;0.73;;
13173;SDS011;6652;48.802;9.190;2023-09-19T02:06:27;1.42;;;0.90;;
13173;SDS011;6652;48.802;9.190;2023-09-19T02:08:54;1.20;;;0.68;;
13173;SDS011;6652;48.802;9.190;2023-09-19T02:11:21;3.15;;;0.90;;
13173;SDS011;6652;48.802;9.190;2023-09-19T02:13:48;1.33;;;0.82;;
13173;SDS011;6652;48.802;9.190;2023-09-19T02:16:19;1.13;;;0.60;;
13173;SDS011;6652;48.802;9.190;2023-09-19T02:18:47;3.85;;;0.93;;
13173;SDS011;6652;48.802;9.190;2023-09-19T02:21:15;1.75;;;0.80;;
13173;SDS011;6652;48.802;9.190;2023-09-19T02:23:42;2.60;;;0.85;;
13173;SDS011;6652;48.802;9.190;2023-09-19T02:26:09;2.53;;;0.90;;
13173;SDS011;6652;48.802;9.190;2023-09-19T02:28:36;0.80;;;0.70;;
13173;SDS011;6652;48.802;9.190;2023-09-19T02:31:03;2.10;;;1.08;;
13173;SDS011;6652;48.802;9.190;2023-09-19T02:33:31;4.20;;;0.80;;
13173;SDS011;6652;48.802;9.190;2023-09-19T02:36:00;0.95;;;0.68;;
13173;SDS011;6652;48.802;9.190;2023-09-19T02:38:29;3.40;;;0.82;;
13173;SDS011;6652;48.802;9.190;2023-09-19T02:40:56;3.85;;;1.10;;
13173;SDS011;6652;48.802;9.190;2023-09-19T02:43:23;2.38;;;0.77;;
13173;SDS011;6652;48.802;9.190;2023-09-19T02:45:50;2.13;;;0.80;;
13173;SDS011;6652;48.802;9.190;2023-09-19T02:48:18;5.50;;;1.15;;
13173;SDS011;6652;48.802;9.190;2023-09-19T02:50:45;3.65;;;0.90;;
13173;SDS011;6652;48.802;9.190;2023-09-19T02:53:13;2.35;;;0.88;;
13173;SDS011;6652;48.802;9.190;2023-09-19T02:55:40;1.98;;;0.90;;
13173;SDS011;6652;48.802;9.190;2023-09-19T02:58:07;4.63;;;1.55;;
13173;SDS011;6652;48.802;9.190;2023-09-19T03:00:36;3.53;;;1.10;;
13173;SDS011;6652;48.802;9.190;2023-09-19T03:03:04;2.00;;;0.80;;
13173;SDS011;6652;48.802;9.190;2023-09-19T03:05:31;3.58;;;0.90;;
13173;SDS011;6652;48.802;9.190;2023-09-19T03:07:58;2.70;;;0.93;;
13173;SDS011;6652;48.802;9.190;2023-09-19T03:10:28;3.28;;;1.00;;
13173;SDS011;6652;48.802;9.190;2023-09-19T03:12:56;1.20;;;0.60;;
13173;SDS011;6652;48.802;9.190;2023-09-19T03:15:23;2.88;;;1.00;;
13173;SDS011;6652;48.802;9.190;2023-09-19T03:17:49;0.95;;;0.70;;
13173;SDS011;6652;48.802;9.190;2023-09-19T03:20:18;1.88;;;0.73;;
13173;SDS011;6652;48.802;9.190;2023-09-19T03:22:46;1.70;;;0.90;;
13173;SDS011;6652;48.802;9.190;2023-09-19T03:25:13;2.92;;;1.33;;
13173;SDS011;6652;48.802;9.190;2023-09-19T03:27:41;1.85;;;0.70;;
13173;SDS011;6652;48.802;9.190;2023-09-19T03:30:08;1.48;;;0.73;;
13173;SDS011;6652;48.802;9.190;2023-09-19T03:32:43;5.05;;;0.95;;
13173;SDS011;6652;48.802;9.190;2023-09-19T03:37:39;1.15;;;0.55;;
13173;SDS011;6652;48.802;9.190;2023-09-19T03:40:06;3.58;;;0.90;;
13173;SDS011;6652;48.802;9.190;2023-09-19T03:42:37;1.63;;;0.85;;
13173;SDS011;6652;48.802;9.190;2023-09-19T03:45:06;4.45;;;1.20;;
13173;SDS011;6652;48.802;9.190;2023-09-19T03:47:37;1.60;;;0.90;;
13173;SDS011;6652;48.802;9.190;2023-09-19T03:50:04;5.18;;;1.15;;
13173;SDS011;6652;48.802;9.190;2023-09-19T03:52:32;6.43;;;0.90;;
13173;SDS011;6652;48.802;9.190;2023-09-19T03:54:58;4.30;;;1.20;;
13173;SDS011;6652;48.802;9.190;2023-09-19T03:57:25;3.42;;;1.08;;
13173;SDS011;6652;48.802;9.190;2023-09-19T03:59:52;3.58;;;1.30;;
13173;SDS011;6652;48.802;9.190;2023-09-19T04:02:20;4.20;;;1.02;;
13173;SDS011;6652;48.802;9.190;2023-09-19T04:04:49;6.05;;;1.77;;
13173;SDS011;6652;48.802;9.190;2023-09-19T04:07:16;3.38;;;2.38;;
13173;SDS011;6652;48.802;9.190;2023-09-19T04:09:44;6.38;;;1.20;;
13173;SDS011;6652;48.802;9.190;2023-09-19T04:12:10;4.00;;;1.20;;
13173;SDS011;6652;48.802;9.190;2023-09-19T04:14:37;4.05;;;1.17;;
13173;SDS011;6652;48.802;9.190;2023-09-19T04:17:04;6.55;;;1.00;;
13173;SDS011;6652;48.802;9.190;2023-09-19T04:19:32;4.78;;;0.98;;
13173;SDS011;6652;48.802;9.190;2023-09-19T04:21:59;5.93;;;0.88;;
13173;SDS011;6652;48.802;9.190;2023-09-19T04:24:26;3.20;;;0.90;;
13173;SDS011;6652;48.802;9.190;2023-09-19T04:26:53;1.90;;;1.17;;
13173;SDS011;6652;48.802;9.190;2023-09-19T04:29:20;6.47;;;1.17;;
13173;SDS011;6652;48.802;9.190;2023-09-19T04:31:46;4.20;;;1.33;;
13173;SDS011;6652;48.802;9.190;2023-09-19T04:34:13;1.70;;;1.00;;
13173;SDS011;6652;48.802;9.190;2023-09-19T04:36:43;5.05;;;1.70;;
13173;SDS011;6652;48.802;9.190;2023-09-19T04:39:10;5.15;;;1.05;;
13173;SDS011;6652;48.802;9.190;2023-09-19T04:41:38;3.95;;;1.42;;
13173;SDS011;6652;48.802;9.190;2023-09-19T04:44:06;4.75;;;1.17;;
13173;SDS011;6652;48.802;9.190;2023-09-19T04:46:33;1.13;;;0.90;;
13173;SDS011;6652;48.802;9.190;2023-09-19T04:49:00;7.95;;;1.20;;
13173;SDS011;6652;48.802;9.190;2023-09-19T04:51:27;1.42;;;0.70;;
13173;SDS011;6652;48.802;9.190;2023-09-19T04:54:00;2.45;;;0.90;;
13173;SDS011;6652;48.802;9.190;2023-09-19T04:56:27;3.47;;;1.10;;
13173;SDS011;6652;48.802;9.190;2023-09-19T04:58:55;2.58;;;1.10;;
13173;SDS011;6652;48.802;9.190;2023-09-19T05:01:23;4.18;;;1.20;;
13173;SDS011;6652;48.802;9.190;2023-09-19T05:03:50;7.63;;;1.30;;
13173;SDS011;6652;48.802;9.190;2023-09-19T05:06:18;2.42;;;1.27;;
13173;SDS011;6652;48.802;9.190;2023-09-19T05:08:45;2.22;;;1.20;;
13173;SDS011;6652;48.802;9.190;2023-09-19T05:11:17;5.78;;;1.60;;
13173;SDS011;6652;48.802;9.190;2023-09-19T05:13:44;5.70;;;1.48;;
13173;SDS011;6652;48.802;9.190;2023-09-19T05:16:11;3.72;;;1.15;;
13173;SDS011;6652;48.802;9.190;2023-09-19T05:18:37;4.10;;;1.23;;
13173;SDS011;6652;48.802;9.190;2023-09-19T05:21:04;5.35;;;1.30;;
13173;SDS011;6652;48.802;9.190;2023-09-19T05:23:32;2.47;;;1.77;;
13173;SDS011;6652;48.802;9.190;2023-09-19T05:25:59;5.85;;;1.65;;
13173;SDS011;6652;48.802;9.190;2023-09-19T05:28:28;2.78;;;1.30;;
13173;SDS011;6652;48.802;9.190;2023-09-19T05:30:55;3.13;;;1.67;;
13173;SDS011;6652;48.802;9.190;2023-09-19T05:33:23;5.40;;;1.73;;
13173;SDS011;6652;48.802;9.190;2023-09-19T05:35:51;4.43;;;1.35;;
13173;SDS011;6652;48.802;9.190;2023-09-19T05:38:19;8.00;;;1.92;;
13173;SDS011;6652;48.802;9.190;2023-09-19T05:40:45;9.93;;;3.15;;
13173;SDS011;6652;48.802;9.190;2023-09-19T05:43:13;8.65;;;1.60;;
13173;SDS011;6652;48.802;9.190;2023-09-19T05:45:41;11.75;;;2.10;;
13173;SDS011;6652;48.802;9.190;2023-09-19T05:48:08;4.30;;;1.70;;
13173;SDS011;6652;48.802;9.190;2023-09-19T05:50:36;2.15;;;1.40;;
13173;SDS011;6652;48.802;9.190;2023-09-19T05:53:03;3.95;;;1.70;;
13173;SDS011;6652;48.802;9.190;2023-09-19T05:55:30;6.93;;;1.65;;
13173;SDS011;6652;48.802;9.190;2023-09-19T05:57:57;6.40;;;1.42;;
13173;SDS011;6652;48.802;9.190;2023-09-19T06:00:24;3.33;;;1.40;;
13173;SDS011;6652;48.802;9.190;2023-09-19T06:02:54;3.33;;;1.70;;
13173;SDS011;6652;48.802;9.190;2023-09-19T06:05:22;6.07;;;1.45;;
13173;SDS011;6652;48.802;9.190;2023-09-19T06:07:51;3.55;;;1.45;;
13173;SDS011;6652;48.802;9.190;2023-09-19T06:10:18;5.28;;;2.10;;
13173;SDS011;6652;48.802;9.190;2023-09-19T06:12:47;5.90;;;2.22;;
13173;SDS011;6652;48.802;9.190;2023-09-19T06:15:15;2.42;;;1.90;;
13173;SDS011;6652;48.802;9.190;2023-09-19T06:17:46;3.58;;;1.65;;
13173;SDS011;6652;48.802;9.190;2023-09-19T06:20:15;8.20;;;2.35;;
13173;SDS011;6652;48.802;9.190;2023-09-19T06:22:43;6.20;;;1.80;;
13173;SDS011;6652;48.802;9.190;2023-09-19T06:25:11;4.55;;;1.92;;
13173;SDS011;6652;48.802;9.190;2023-09-19T06:27:44;6.22;;;1.75;;
13173;SDS011;6652;48.802;9.190;2023-09-19T06:30:11;4.97;;;2.80;;
13173;SDS011;6652;48.802;9.190;2023-09-19T06:32:38;3.90;;;1.92;;
13173;SDS011;6652;48.802;9.190;2023-09-19T06:35:09;3.85;;;1.83;;
13173;SDS011;6652;48.802;9.190;2023-09-19T06:37:37;6.78;;;1.70;;
13173;SDS011;6652;48.802;9.190;2023-09-19T06:40:06;5.10;;;1.90;;
13173;SDS011;6652;48.802;9.190;2023-09-19T06:42:38;3.42;;;1.90;;
13173;SDS011;6652;48.802;9.190;2023-09-19T06:45:06;8.48;;;1.67;;
13173;SDS011;6652;48.802;9.190;2023-09-19T06:47:34;6.57;;;1.90;;
13173;SDS011;6652;48.802;9.190;2023-09-19T06:50:01;6.85;;;1.90;;
13173;SDS011;6652;48.802;9.190;2023-09-19T06:52:30;4.65;;;1.70;;
13173;SDS011;6652;48.802;9.190;2023-09-19T06:54:59;9.00;;;2.72;;
13173;SDS011;6652;48.802;9.190;2023-09-19T06:57:28;4.07;;;2.10;;
13173;SDS011;6652;48.802;9.190;2023-09-19T06:59:55;6.95;;;1.88;;
13173;SDS011;6652;48.802;9.190;2023-09-19T07:02:22;5.30;;;2.00;;
13173;SDS011;6652;48.802;9.190;2023-09-19T07:04:49;6.07;;;1.88;;
13173;SDS011;6652;48.802;9.190;2023-09-19T07:07:15;3.70;;;1.58;;
13173;SDS011;6652;48.802;9.190;2023-09-19T07:09:42;6.93;;;1.60;;
13173;SDS011;6652;48.802;9.190;2023-09-19T07:12:10;4.95;;;1.63;;
13173;SDS011;6652;48.802;9.190;2023-09-19T07:14:38;3.90;;;1.70;;
13173;SDS011;6652;48.802;9.190;2023-09-19T07:17:05;6.88;;;2.00;;
13173;SDS011;6652;48.802;9.190;2023-09-19T07:19:32;6.72;;;1.70;;
13173;SDS011;6652;48.802;9.190;2023-09-19T07:21:59;8.57;;;1.70;;
13173;SDS011;6652;48.802;9.190;2023-09-19T07:24:27;6.18;;;1.50;;
13173;SDS011;6652;48.802;9.190;2023-09-19T07:26:54;4.97;;;1.80;;
13173;SDS011;6652;48.802;9.190;2023-09-19T07:29:22;4.40;;;1.85;;
13173;SDS011;6652;48.802;9.190;2023-09-19T07:31:51;8.85;;;1.70;;
13173;SDS011;6652;48.802;9.190;2023-09-19T07:34:18;4.88;;;1.80;;
13173;SDS011;6652;48.802;9.190;2023-09-19T07:36:45;3.13;;;1.45;;
13173;SDS011;6652;48.802;9.190;2023-09-19T07:39:12;4.13;;;1.40;;
13173;SDS011;6652;48.802;9.190;2023-09-19T07:41:39;5.28;;;1.73;;
13173;SDS011;6652;48.802;9.190;2023-09-19T07:44:07;8.25;;;1.50;;
13173;SDS011;6652;48.802;9.190;2023-09-19T07:46:36;5.72;;;1.90;;
13173;SDS011;6652;48.802;9.190;2023-09-19T07:49:03;6.40;;;2.30;;
13173;SDS011;6652;48.802;9.190;2023-09-19T07:51:30;4.72;;;1.65;;
13173;SDS011;6652;48.802;9.190;2023-09-19T07:53:58;3.05;;;1.52;;
13173;SDS011;6652;48.802;9.190;2023-09-19T07:56:24;6.00;;;1.50;;
13173;SDS011;6652;48.802;9.190;2023-09-19T07:58:52;5.85;;;1.80;;
13173;SDS011;6652;48.802;9.190;2023-09-19T08:01:19;4.38;;;1.48;;
13173;SDS011;6652;48.802;9.190;2023-09-19T08:03:50;3.17;;;1.58;;
13173;SDS011;6652;48.802;9.190;2023-09-19T08:06:17;3.85;;;1.35;;
13173;SDS011;6652;48.802;9.190;2023-09-19T08:08:45;3.80;;;1.50;;
13173;SDS011;6652;48.802;9.190;2023-09-19T08:11:12;4.15;;;1.85;;
13173;SDS011;6652;48.802;9.190;2023-09-19T08:13:49;5.22;;;2.70;;
13173;SDS011;6652;48.802;9.190;2023-09-19T08:16:17;8.95;;;3.47;;
13173;SDS011;6652;48.802;9.190;2023-09-19T08:18:46;5.60;;;2.85;;
13173;SDS011;6652;48.802;9.190;2023-09-19T08:21:21;2.90;;;2.22;;
13173;SDS011;6652;48.802;9.190;2023-09-19T08:23:49;3.13;;;1.83;;
13173;SDS011;6652;48.802;9.190;2023-09-19T08:26:15;5.38;;;2.22;;
13173;SDS011;6652;48.802;9.190;2023-09-19T08:28:42;3.42;;;1.30;;
13173;SDS011;6652;48.802;9.190;2023-09-19T08:31:09;3.33;;;1.45;;
13173;SDS011;6652;48.802;9.190;2023-09-19T08:33:36;3.85;;;1.45;;
13173;SDS011;6652;48.802;9.190;2023-09-19T08:36:03;2.72;;;1.25;;
13173;SDS011;6652;48.802;9.190;2023-09-19T08:38:33;4.90;;;1.40;;
13173;SDS011;6652;48.802;9.190;2023-09-19T08:41:04;4.28;;;1.58;;
13173;SDS011;6652;48.802;9.190;2023-09-19T08:43:32;1.58;;;1.08;;
13173;SDS011;6652;48.802;9.190;2023-09-19T08:46:02;3.25;;;1.17;;
13173;SDS011;6652;48.802;9.190;2023-09-19T08:48:34;4.65;;;1.38;;
13173;SDS011;6652;48.802;9.190;2023-09-19T08:51:06;4.70;;;1.15;;
13173;SDS011;6652;48.802;9.190;2023-09-19T08:53:36;1.77;;;0.90;;
13173;SDS011;6652;48.802;9.190;2023-09-19T08:56:09;6.60;;;1.50;;
13173;SDS011;6652;48.802;9.190;2023-09-19T08:58:39;6.93;;;1.40;;
13173;SDS011;6652;48.802;9.190;2023-09-19T09:01:12;6.75;;;0.95;;
13173;SDS011;6652;48.802;9.190;2023-09-19T09:03:41;3.47;;;1.23;;
13173;SDS011;6652;48.802;9.190;2023-09-19T09:06:11;4.35;;;1.30;;
13173;SDS011;6652;48.802;9.190;2023-09-19T09:08:42;1.40;;;0.98;;
13173;SDS011;6652;48.802;9.190;2023-09-19T09:11:09;2.92;;;1.25;;
13173;SDS011;6652;48.802;9.190;2023-09-19T09:13:37;2.22;;;1.00;;
13173;SDS011;6652;48.802;9.190;2023-09-19T09:16:06;10.07;;;1.10;;
13173;SDS011;6652;48.802;9.190;2023-09-19T09:18:33;2.97;;;1.17;;
13173;SDS011;6652;48.802;9.190;2023-09-19T09:21:00;1.95;;;1.30;;
13173;SDS011;6652;48.802;9.190;2023-09-19T09:23:27;2.53;;;1.45;;
13173;SDS011;6652;48.802;9.190;2023-09-19T09:25:56;4.80;;;1.38;;
13173;SDS011;6652;48.802;9.190;2023-09-19T09:28:27;5.93;;;1.30;;
13173;SDS011;6652;48.802;9.190;2023-09-19T09:30:55;4.00;;;1.30;;
13173;SDS011;6652;48.802;9.190;2023-09-19T09:33:24;2.30;;;1.38;;
13173;SDS011;6652;48.802;9.190;2023-09-19T09:35:52;6.47;;;1.60;;
13173;SDS011;6652;48.802;9.190;2023-09-19T09:38:22;6.07;;;1.25;;
13173;SDS011;6652;48.802;9.190;2023-09-19T09:40:53;4.03;;;1.38;;
13173;SDS011;6652;48.802;9.190;2023-09-19T09:43:28;2.05;;;1.17;;
13173;SDS011;6652;48.802;9.190;2023-09-19T09:46:07;2.90;;;1.40;;
13173;SDS011;6652;48.802;9.190;2023-09-19T09:49:10;2.47;;;1.33;;
13173;SDS011;6652;48.802;9.190;2023-09-19T09:51:58;5.27;;;1.30;;
13173;SDS011;6652;48.802;9.190;2023-09-19T09:54:30;2.63;;;1.30;;
13173;SDS011;6652;48.802;9.190;2023-09-19T09:57:02;4.60;;;1.08;;
13173;SDS011;6652;48.802;9.190;2023-09-19T09:59:47;5.07;;;1.98;;
13173;SDS011;6652;48.802;9.190;2023-09-19T10:02:19;2.20;;;1.00;;
13173;SDS011;6652;48.802;9.190;2023-09-19T10:04:50;6.22;;;1.40;;
13173;SDS011;6652;48.802;9.190;2023-09-19T10:07:28;3.67;;;1.65;;
13173;SDS011;6652;48.802;9.190;2023-09-19T10:10:01;5.38;;;1.33;;
13173;SDS011;6652;48.802;9.190;2023-09-19T10:12:42;6.13;;;1.75;;
13173;SDS011;6652;48.802;9.190;2023-09-19T10:15:14;3.33;;;1.40;;
13173;SDS011;6652;48.802;9.190;2023-09-19T10:17:45;4.63;;;1.73;;
13173;SDS011;6652;48.802;9.190;2023-09-19T10:20:13;2.97;;;1.30;;
13173;SDS011;6652;48.802;9.190;2023-09-19T10:23:00;5.30;;;1.50;;
13173;SDS011;6652;48.802;9.190;2023-09-19T10:25:34;3.45;;;1.40;;
13173;SDS011;6652;48.802;9.190;2023-09-19T10:28:03;4.13;;;1.52;;
13173;SDS011;6652;48.802;9.190;2023-09-19T10:30:37;3.60;;;1.20;;
13173;SDS011;6652;48.802;9.190;2023-09-19T10:33:09;3.60;;;1.20;;
13173;SDS011;6652;48.802;9.190;2023-09-19T10:35:37;2.05;;;1.20;;
13173;SDS011;6652;48.802;9.190;2023-09-19T10:38:06;2.88;;;1.35;;
13173;SDS011;6652;48.802;9.190;2023-09-19T10:40:34;3.47;;;1.10;;
13173;SDS011;6652;48.802;9.190;2023-09-19T10:43:02;3.47;;;1.13;;
13173;SDS011;6652;48.802;9.190;2023-09-19T10:45:31;2.83;;;1.23;;
13173;SDS011;6652;48.802;9.190;2023-09-19T10:48:00;4.07;;;1.23;;
13173;SDS011;6652;48.802;9.190;2023-09-19T10:50:28;2.25;;;1.33;;
13173;SDS011;6652;48.802;9.190;2023-09-19T10:52:59;2.00;;;1.17;;
13173;SDS011;6652;48.802;9.190;2023-09-19T10:55:30;4.00;;;1.00;;
13173;SDS011;6652;48.802;9.190;2023-09-19T10:57:58;4.80;;;1.25;;
13173;SDS011;6652;48.802;9.190;2023-09-19T11:00:29;1.80;;;1.02;;
13173;SDS011;6652;48.802;9.190;2023-09-19T11:03:19;3.88;;;1.65;;
13173;SDS011;6652;48.802;9.190;2023-09-19T11:06:04;4.05;;;1.15;;
13173;SDS011;6652;48.802;9.190;2023-09-19T11:11:39;6.10;;;1.05;;
13173;SDS011;6652;48.802;9.190;2023-09-19T11:14:16;2.95;;;1.02;;
13173;SDS011;6652;48.802;9.190;2023-09-19T11:23:19;5.13;;;1.20;;
13173;SDS011;6652;48.802;9.190;2023-09-19T11:25:51;1.25;;;0.80;;
13173;SDS011;6652;48.802;9.190;2023-09-19T11:28:31;2.03;;;1.10;;
13173;SDS011;6652;48.802;9.190;2023-09-19T11:34:43;2.78;;;0.90;;
13173;SDS011;6652;48.802;9.190;2023-09-19T11:40:28;4.57;;;1.00;;
13173;SDS011;6652;48.802;9.190;2023-09-19T11:42:55;3.35;;;1.00;;
13173;SDS011;6652;48.802;9.190;2023-09-19T11:48:27;1.50;;;0.73;;
13173;SDS011;6652;48.802;9.190;2023-09-19T11:50:54;2.13;;;1.10;;
13173;SDS011;6652;48.802;9.190;2023-09-19T11:53:22;1.67;;;1.00;;
13173;SDS011;6652;48.802;9.190;2023-09-19T11:55:51;0.90;;;0.63;;
13173;SDS011;6652;48.802;9.190;2023-09-19T11:58:18;2.17;;;1.00;;
13173;SDS011;6652;48.802;9.190;2023-09-19T12:00:46;1.80;;;0.82;;
13173;SDS011;6652;48.802;9.190;2023-09-19T12:03:22;2.13;;;1.00;;
13173;SDS011;6652;48.802;9.190;2023-09-19T12:05:50;1.35;;;1.00;;
13173;SDS011;6652;48.802;9.190;2023-09-19T12:08:17;7.40;;;1.15;;
13173;SDS011;6652;48.802;9.190;2023-09-19T12:10:46;3.60;;;1.08;;
13173;SDS011;6652;48.802;9.190;2023-09-19T12:13:18;2.03;;;0.90;;
13173;SDS011;6652;48.802;9.190;2023-09-19T12:15:45;4.13;;;0.98;;
13173;SDS011;6652;48.802;9.190;2023-09-19T12:18:26;2.00;;;1.05;;
13173;SDS011;6652;48.802;9.190;2023-09-19T12:20:54;3.90;;;1.00;;
13173;SDS011;6652;48.802;9.190;2023-09-19T12:23:23;4.15;;;1.48;;
13173;SDS011;6652;48.802;9.190;2023-09-19T12:25:50;1.98;;;0.90;;
13173;SDS011;6652;48.802;9.190;2023-09-19T12:28:20;3.83;;;0.90;;
13173;SDS011;6652;48.802;9.190;2023-09-19T12:30:47;3.20;;;1.00;;
13173;SDS011;6652;48.802;9.190;2023-09-19T12:33:15;1.63;;;0.95;;
13173;SDS011;6652;48.802;9.190;2023-09-19T12:35:44;2.90;;;0.90;;
13173;SDS011;6652;48.802;9.190;2023-09-19T12:38:21;2.85;;;0.90;;
13173;SDS011;6652;48.802;9.190;2023-09-19T12:40:53;1.40;;;1.00;;
13173;SDS011;6652;48.802;9.190;2023-09-19T12:43:22;3.00;;;1.00;;
13173;SDS011;6652;48.802;9.190;2023-09-19T12:45:49;1.83;;;1.10;;
13173;SDS011;6652;48.802;9.190;2023-09-19T12:48:18;4.30;;;1.10;;
13173;SDS011;6652;48.802;9.190;2023-09-19T12:51:04;2.53;;;1.15;;
13173;SDS011;6652;48.802;9.190;2023-09-19T12:53:32;2.08;;;1.13;;
13173;SDS011;6652;48.802;9.190;2023-09-19T12:56:03;2.45;;;1.02;;
13173;SDS011;6652;48.802;9.190;2023-09-19T12:58:34;3.10;;;1.27;;
13173;SDS011;6652;48.802;9.190;2023-09-19T13:01:14;4.32;;;1.17;;
13173;SDS011;6652;48.802;9.190;2023-09-19T13:03:41;4.78;;;1.20;;
13173;SDS011;6652;48.802;9.190;2023-09-19T13:06:08;5.97;;;1.27;;
13173;SDS011;6652;48.802;9.190;2023-09-19T13:08:35;1.70;;;1.15;;
13173;SDS011;6652;48.802;9.190;2023-09-19T13:11:07;3.50;;;1.13;;
13173;SDS011;6652;48.802;9.190;2023-09-19T13:13:39;6.70;;;1.08;;
13173;SDS011;6652;48.802;9.190;2023-09-19T13:16:11;3.72;;;1.20;;
13173;SDS011;6652;48.802;9.190;2023-09-19T13:18:45;3.28;;;1.30;;
13173;SDS011;6652;48.802;9.190;2023-09-19T13:21:15;2.30;;;0.90;;
13173;SDS011;6652;48.802;9.190;2023-09-19T13:23:49;1.83;;;1.02;;
13173;SDS011;6652;48.802;9.190;2023-09-19T13:26:17;2.25;;;1.05;;
13173;SDS011;6652;48.802;9.190;2023-09-19T13:28:45;3.67;;;1.50;;
13173;SDS011;6652;48.802;9.190;2023-09-19T13:31:14;3.10;;;1.40;;
13173;SDS011;6652;48.802;9.190;2023-09-19T13:33:44;3.60;;;1.13;;
13173;SDS011;6652;48.802;9.190;2023-09-19T13:36:13;5.82;;;1.40;;
13173;SDS011;6652;48.802;9.190;2023-09-19T13:38:40;5.32;;;1.25;;
13173;SDS011;6652;48.802;9.190;2023-09-19T13:41:08;3.13;;;1.25;;
13173;SDS011;6652;48.802;9.190;2023-09-19T13:43:35;4.13;;;1.40;;
13173;SDS011;6652;48.802;9.190;2023-09-19T13:46:05;3.88;;;1.13;;
13173;SDS011;6652;48.802;9.190;2023-09-19T13:48:37;2.47;;;1.50;;
13173;SDS011;6652;48.802;9.190;2023-09-19T13:51:03;7.00;;;1.60;;
13173;SDS011;6652;48.802;9.190;2023-09-19T13:53:30;2.75;;;1.10;;
13173;SDS011;6652;48.802;9.190;2023-09-19T13:55:57;2.22;;;1.15;;
13173;SDS011;6652;48.802;9.190;2023-09-19T13:58:24;5.40;;;1.42;;
13173;SDS011;6652;48.802;9.190;2023-09-19T14:00:52;3.75;;;1.17;;
13173;SDS011;6652;48.802;9.190;2023-09-19T14:03:21;1.80;;;1.30;;
13173;SDS011;6652;48.802;9.190;2023-09-19T14:05:49;3.17;;;1.08;;
13173;SDS011;6652;48.802;9.190;2023-09-19T14:08:16;5.85;;;1.70;;
13173;SDS011;6652;48.802;9.190;2023-09-19T14:10:43;2.90;;;1.40;;
13173;SDS011;6652;48.802;9.190;2023-09-19T14:13:10;2.97;;;1.27;;
13173;SDS011;6652;48.802;9.190;2023-09-19T14:15:38;2.40;;;1.30;;
13173;SDS011;6652;48.802;9.190;2023-09-19T14:18:05;3.50;;;1.00;;
13173;SDS011;6652;48.802;9.190;2023-09-19T14:20:33;2.88;;;1.25;;
13173;SDS011;6652;48.802;9.190;2023-09-19T14:23:05;1.65;;;1.10;;
13173;SDS011;6652;48.802;9.190;2023-09-19T14:25:33;2.08;;;1.25;;
13173;SDS011;6652;48.802;9.190;2023-09-19T14:28:01;3.22;;;1.10;;
13173;SDS011;6652;48.802;9.190;2023-09-19T14:30:28;3.15;;;1.58;;
13173;SDS011;6652;48.802;9.190;2023-09-19T14:32:55;3.55;;;1.33;;
13173;SDS011;6652;48.802;9.190;2023-09-19T14:35:22;4.13;;;0.98;;
13173;SDS011;6652;48.802;9.190;2023-09-19T14:37:51;2.83;;;1.10;;
13173;SDS011;6652;48.802;9.190;2023-09-19T14:40:20;4.68;;;1.38;;
13173;SDS011;6652;48.802;9.190;2023-09-19T14:42:47;3.38;;;1.77;;
13173;SDS011;6652;48.802;9.190;2023-09-19T14:45:14;2.50;;;1.20;;
13173;SDS011;6652;48.802;9.190;2023-09-19T14:47:43;1.40;;;1.00;;
13173;SDS011;6652;48.802;9.190;2023-09-19T14:50:10;2.15;;;1.00;;
13173;SDS011;6652;48.802;9.190;2023-09-19T14:52:37;4.47;;;1.80;;
13173;SDS011;6652;48.802;9.190;2023-09-19T14:55:07;2.42;;;1.30;;
13173;SDS011;6652;48.802;9.190;2023-09-19T14:57:40;3.13;;;1.20;;
13173;SDS011;6652;48.802;9.190;2023-09-19T15:00:10;4.63;;;1.85;;
13173;SDS011;6652;48.802;9.190;2023-09-19T15:02:37;2.22;;;1.20;;
13173;SDS011;6652;48.802;9.190;2023-09-19T15:05:06;1.45;;;1.15;;
13173;SDS011;6652;48.802;9.190;2023-09-19T15:07:33;4.72;;;1.38;;
13173;SDS011;6652;48.802;9.190;2023-09-19T15:10:01;2.25;;;1.35;;
13173;SDS011;6652;48.802;9.190;2023-09-19T15:12:35;2.22;;;1.30;;
13173;SDS011;6652;48.802;9.190;2023-09-19T15:15:20;2.00;;;1.15;;
13173;SDS011;6652;48.802;9.190;2023-09-19T15:17:48;1.98;;;1.30;;
13173;SDS011;6652;48.802;9.190;2023-09-19T15:20:15;6.82;;;1.58;;
13173;SDS011;6652;48.802;9.190;2023-09-19T15:22:42;3.53;;;1.15;;
13173;SDS011;6652;48.802;9.190;2023-09-19T15:25:09;2.70;;;1.20;;
13173;SDS011;6652;48.802;9.190;2023-09-19T15:27:36;3.25;;;1.20;;
13173;SDS011;6652;48.802;9.190;2023-09-19T15:30:03;2.30;;;1.17;;
13173;SDS011;6652;48.802;9.190;2023-09-19T15:32:33;1.42;;;1.00;;
13173;SDS011;6652;48.802;9.190;2023-09-19T15:35:00;1.60;;;0.77;;
13173;SDS011;6652;48.802;9.190;2023-09-19T15:37:27;2.60;;;1.20;;
13173;SDS011;6652;48.802;9.190;2023-09-19T15:39:54;2.17;;;1.00;;